sensor_id;sensor_type;location;lat;lon;timestamp;temperature;humidity
25250;DHT22;13201;51.148;13.738;2022-11-15T00:00:07;8.80;99.90
25250;DHT22;13201;51.148;13.738;2022-11-15T00:02:33;8.80;99.90
25250;DHT22;13201;51.148;13.738;2022-11-15T00:04:59;8.80;99.90
25250;DHT22;13201;51.148;13.738;2022-11-15T00:07:24;8.80;99.90
25250;DHT22;13201;51.148;13.738;2022-11-15T00:09:50;8.70;99.90
25250;DHT22;13201;51.148;13.738;2022-11-15T00:12:15;8.70;99.90
25250;DHT22;13201;51.148;13.738;2022-11-15T00:14:41;8.70;99.90
25250;DHT22;13201;51.148;13.738;2022-11-15T00:17:07;8.60;99.90
25250;DHT22;13201;51.148;13.738;2022-11-15T00:19:32;8.60;99.90
25250;DHT22;13201;51.148;13.738;2022-11-15T00:21:58;8.60;99.90
25250;DHT22;13201;51.148;13.738;2022-11-15T00:24:24;8.60;99.90
25250;DHT22;13201;51.148;13.738;2022-11-15T00:26:50;8.60;99.90
25250;DHT22;13201;51.148;13.738;2022-11-15T00:29:15;8.60;99.90
25250;DHT22;13201;51.148;13.738;2022-11-15T00:31:41;8.60;99.90
25250;DHT22;13201;51.148;13.738;2022-11-15T00:34:06;8.60;99.90
25250;DHT22;13201;51.148;13.738;2022-11-15T00:36:33;8.60;99.90
25250;DHT22;13201;51.148;13.738;2022-11-15T00:39:00;8.50;99.90
25250;DHT22;13201;51.148;13.738;2022-11-15T00:41:25;8.60;99.90
25250;DHT22;13201;51.148;13.738;2022-11-15T00:43:51;8.70;99.90
25250;DHT22;13201;51.148;13.738;2022-11-15T00:46:17;8.70;99.90
25250;DHT22;13201;51.148;13.738;2022-11-15T00:48:42;8.70;99.90
25250;DHT22;13201;51.148;13.738;2022-11-15T00:51:08;8.70;99.90
25250;DHT22;13201;51.148;13.738;2022-11-15T00:53:34;8.80;99.90
25250;DHT22;13201;51.148;13.738;2022-11-15T00:55:59;8.70;99.90
25250;DHT22;13201;51.148;13.738;2022-11-15T00:58:25;8.70;99.90
25250;DHT22;13201;51.148;13.738;2022-11-15T01:00:51;8.60;99.90
25250;DHT22;13201;51.148;13.738;2022-11-15T01:03:16;8.60;99.90
25250;DHT22;13201;51.148;13.738;2022-11-15T01:05:42;8.60;99.90
25250;DHT22;13201;51.148;13.738;2022-11-15T01:31:20;7.70;99.90
25250;DHT22;13201;51.148;13.738;2022-11-15T01:33:46;7.60;99.90
25250;DHT22;13201;51.148;13.738;2022-11-15T01:36:21;7.70;99.90
25250;DHT22;13201;51.148;13.738;2022-11-15T01:38:52;7.80;99.90
25250;DHT22;13201;51.148;13.738;2022-11-15T01:41:20;7.90;99.90
25250;DHT22;13201;51.148;13.738;2022-11-15T01:43:52;8.00;99.90
25250;DHT22;13201;51.148;13.738;2022-11-15T01:48:48;8.20;99.90
25250;DHT22;13201;51.148;13.738;2022-11-15T01:51:16;8.30;99.90
25250;DHT22;13201;51.148;13.738;2022-11-15T01:53:45;8.40;99.90
25250;DHT22;13201;51.148;13.738;2022-11-15T01:56:15;8.40;99.90
25250;DHT22;13201;51.148;13.738;2022-11-15T01:58:43;8.40;99.90
25250;DHT22;13201;51.148;13.738;2022-11-15T02:01:12;8.50;99.90
25250;DHT22;13201;51.148;13.738;2022-11-15T02:04:10;8.50;99.90
25250;DHT22;13201;51.148;13.738;2022-11-15T02:06:38;8.50;99.90
25250;DHT22;13201;51.148;13.738;2022-11-15T02:09:04;8.50;99.90
25250;DHT22;13201;51.148;13.738;2022-11-15T02:11:30;8.50;99.90
25250;DHT22;13201;51.148;13.738;2022-11-15T02:13:57;8.60;99.90
25250;DHT22;13201;51.148;13.738;2022-11-15T02:22:33;8.60;99.90
25250;DHT22;13201;51.148;13.738;2022-11-15T02:27:53;8.60;99.90
25250;DHT22;13201;51.148;13.738;2022-11-15T02:33:09;8.60;99.90
25250;DHT22;13201;51.148;13.738;2022-11-15T02:35:49;8.50;99.90
25250;DHT22;13201;51.148;13.738;2022-11-15T02:41:15;8.50;99.90
25250;DHT22;13201;51.148;13.738;2022-11-15T02:44:35;8.50;99.90
25250;DHT22;13201;51.148;13.738;2022-11-15T02:47:07;8.60;99.90
25250;DHT22;13201;51.148;13.738;2022-11-15T02:49:49;8.50;99.90
25250;DHT22;13201;51.148;13.738;2022-11-15T02:52:21;8.50;99.90
25250;DHT22;13201;51.148;13.738;2022-11-15T02:55:00;8.50;99.90
25250;DHT22;13201;51.148;13.738;2022-11-15T02:57:52;8.50;99.90
25250;DHT22;13201;51.148;13.738;2022-11-15T03:00:20;8.50;99.90
25250;DHT22;13201;51.148;13.738;2022-11-15T03:11:17;8.40;99.90
25250;DHT22;13201;51.148;13.738;2022-11-15T03:14:08;8.40;99.90
25250;DHT22;13201;51.148;13.738;2022-11-15T03:19:54;8.50;99.90
25250;DHT22;13201;51.148;13.738;2022-11-15T03:22:23;8.40;99.90
25250;DHT22;13201;51.148;13.738;2022-11-15T03:25:02;8.40;99.90
25250;DHT22;13201;51.148;13.738;2022-11-15T03:27:33;8.40;99.90
25250;DHT22;13201;51.148;13.738;2022-11-15T03:30:04;8.40;99.90
25250;DHT22;13201;51.148;13.738;2022-11-15T03:32:34;8.40;99.90
25250;DHT22;13201;51.148;13.738;2022-11-15T03:35:09;8.30;99.90
25250;DHT22;13201;51.148;13.738;2022-11-15T03:37:43;8.30;99.90
25250;DHT22;13201;51.148;13.738;2022-11-15T03:40:10;8.30;99.90
25250;DHT22;13201;51.148;13.738;2022-11-15T03:48:05;8.30;99.90
25250;DHT22;13201;51.148;13.738;2022-11-15T03:50:34;8.30;99.90
25250;DHT22;13201;51.148;13.738;2022-11-15T03:53:00;8.30;99.90
25250;DHT22;13201;51.148;13.738;2022-11-15T03:55:26;8.20;99.90
25250;DHT22;13201;51.148;13.738;2022-11-15T03:57:54;8.20;99.90
25250;DHT22;13201;51.148;13.738;2022-11-15T04:00:21;8.10;99.90
25250;DHT22;13201;51.148;13.738;2022-11-15T04:02:47;8.10;99.90
25250;DHT22;13201;51.148;13.738;2022-11-15T04:05:12;8.10;99.90
25250;DHT22;13201;51.148;13.738;2022-11-15T04:07:38;8.10;99.90
25250;DHT22;13201;51.148;13.738;2022-11-15T04:10:04;8.10;99.90
25250;DHT22;13201;51.148;13.738;2022-11-15T04:12:35;8.10;99.90
25250;DHT22;13201;51.148;13.738;2022-11-15T04:15:03;8.10;99.90
25250;DHT22;13201;51.148;13.738;2022-11-15T04:17:43;8.10;99.90
25250;DHT22;13201;51.148;13.738;2022-11-15T04:20:20;8.00;99.90
25250;DHT22;13201;51.148;13.738;2022-11-15T04:25:56;8.10;99.90
25250;DHT22;13201;51.148;13.738;2022-11-15T04:28:23;8.10;99.90
25250;DHT22;13201;51.148;13.738;2022-11-15T04:30:49;8.00;99.90
25250;DHT22;13201;51.148;13.738;2022-11-15T04:33:15;8.00;99.90
25250;DHT22;13201;51.148;13.738;2022-11-15T04:35:42;8.00;99.90
25250;DHT22;13201;51.148;13.738;2022-11-15T04:38:09;8.10;99.90
25250;DHT22;13201;51.148;13.738;2022-11-15T04:40:35;8.10;99.90
25250;DHT22;13201;51.148;13.738;2022-11-15T04:43:02;8.00;99.90
25250;DHT22;13201;51.148;13.738;2022-11-15T04:45:27;8.00;99.90
25250;DHT22;13201;51.148;13.738;2022-11-15T04:47:53;8.00;99.90
25250;DHT22;13201;51.148;13.738;2022-11-15T04:50:19;8.10;99.90
25250;DHT22;13201;51.148;13.738;2022-11-15T04:52:51;8.00;99.90
25250;DHT22;13201;51.148;13.738;2022-11-15T04:55:17;8.00;99.90
25250;DHT22;13201;51.148;13.738;2022-11-15T04:57:43;8.00;99.90
25250;DHT22;13201;51.148;13.738;2022-11-15T05:00:14;8.10;99.90
25250;DHT22;13201;51.148;13.738;2022-11-15T05:02:40;8.10;99.90
25250;DHT22;13201;51.148;13.738;2022-11-15T05:05:24;7.90;99.90
25250;DHT22;13201;51.148;13.738;2022-11-15T05:07:50;8.00;99.90
25250;DHT22;13201;51.148;13.738;2022-11-15T05:10:17;8.00;99.90
25250;DHT22;13201;51.148;13.738;2022-11-15T05:12:42;7.90;99.90
25250;DHT22;13201;51.148;13.738;2022-11-15T05:15:08;7.80;99.90
25250;DHT22;13201;51.148;13.738;2022-11-15T05:17:34;7.70;99.90
25250;DHT22;13201;51.148;13.738;2022-11-15T05:20:00;7.70;99.90
25250;DHT22;13201;51.148;13.738;2022-11-15T05:22:25;7.70;99.90
25250;DHT22;13201;51.148;13.738;2022-11-15T05:24:51;7.70;99.90
25250;DHT22;13201;51.148;13.738;2022-11-15T05:27:16;7.70;99.90
25250;DHT22;13201;51.148;13.738;2022-11-15T05:29:42;7.80;99.90
25250;DHT22;13201;51.148;13.738;2022-11-15T05:32:09;7.80;99.90
25250;DHT22;13201;51.148;13.738;2022-11-15T05:34:35;7.80;99.90
25250;DHT22;13201;51.148;13.738;2022-11-15T05:37:01;7.90;99.90
25250;DHT22;13201;51.148;13.738;2022-11-15T05:39:27;7.90;99.90
25250;DHT22;13201;51.148;13.738;2022-11-15T05:42:05;8.00;99.90
25250;DHT22;13201;51.148;13.738;2022-11-15T05:44:33;8.00;99.90
25250;DHT22;13201;51.148;13.738;2022-11-15T05:46:59;8.10;99.90
25250;DHT22;13201;51.148;13.738;2022-11-15T05:49:30;8.00;99.90
25250;DHT22;13201;51.148;13.738;2022-11-15T05:51:57;8.00;99.90
25250;DHT22;13201;51.148;13.738;2022-11-15T05:54:23;7.90;99.90
25250;DHT22;13201;51.148;13.738;2022-11-15T05:56:50;7.80;99.90
25250;DHT22;13201;51.148;13.738;2022-11-15T05:59:16;8.00;99.90
25250;DHT22;13201;51.148;13.738;2022-11-15T06:01:42;8.00;99.90
25250;DHT22;13201;51.148;13.738;2022-11-15T06:04:08;8.00;99.90
25250;DHT22;13201;51.148;13.738;2022-11-15T06:06:33;7.80;99.90
25250;DHT22;13201;51.148;13.738;2022-11-15T06:08:59;7.80;99.90
25250;DHT22;13201;51.148;13.738;2022-11-15T06:11:25;7.70;99.90
25250;DHT22;13201;51.148;13.738;2022-11-15T06:13:50;7.60;99.90
25250;DHT22;13201;51.148;13.738;2022-11-15T06:16:16;7.40;99.90
25250;DHT22;13201;51.148;13.738;2022-11-15T06:18:42;7.50;99.90
25250;DHT22;13201;51.148;13.738;2022-11-15T06:21:07;7.60;99.90
25250;DHT22;13201;51.148;13.738;2022-11-15T06:23:34;7.50;99.90
25250;DHT22;13201;51.148;13.738;2022-11-15T06:26:01;7.40;99.90
25250;DHT22;13201;51.148;13.738;2022-11-15T06:28:31;7.50;99.90
25250;DHT22;13201;51.148;13.738;2022-11-15T06:31:02;7.60;99.90
25250;DHT22;13201;51.148;13.738;2022-11-15T06:33:28;7.50;99.90
25250;DHT22;13201;51.148;13.738;2022-11-15T06:35:54;7.50;99.90
25250;DHT22;13201;51.148;13.738;2022-11-15T06:38:20;7.40;99.90
25250;DHT22;13201;51.148;13.738;2022-11-15T06:40:45;7.60;99.90
25250;DHT22;13201;51.148;13.738;2022-11-15T06:43:11;7.70;99.90
25250;DHT22;13201;51.148;13.738;2022-11-15T06:45:36;7.60;99.90
25250;DHT22;13201;51.148;13.738;2022-11-15T06:48:02;7.50;99.90
25250;DHT22;13201;51.148;13.738;2022-11-15T06:50:28;7.50;99.90
25250;DHT22;13201;51.148;13.738;2022-11-15T06:52:53;7.60;99.90
25250;DHT22;13201;51.148;13.738;2022-11-15T06:55:20;7.70;99.90
25250;DHT22;13201;51.148;13.738;2022-11-15T06:57:52;7.60;99.90
25250;DHT22;13201;51.148;13.738;2022-11-15T07:00:19;7.70;99.90
25250;DHT22;13201;51.148;13.738;2022-11-15T07:02:46;7.70;99.90
25250;DHT22;13201;51.148;13.738;2022-11-15T07:05:12;7.70;99.90
25250;DHT22;13201;51.148;13.738;2022-11-15T07:07:38;7.80;99.90
25250;DHT22;13201;51.148;13.738;2022-11-15T07:10:05;7.90;99.90
25250;DHT22;13201;51.148;13.738;2022-11-15T07:12:30;7.90;99.90
25250;DHT22;13201;51.148;13.738;2022-11-15T07:14:56;8.00;99.90
25250;DHT22;13201;51.148;13.738;2022-11-15T07:17:22;8.10;99.90
25250;DHT22;13201;51.148;13.738;2022-11-15T07:19:47;8.10;99.90
25250;DHT22;13201;51.148;13.738;2022-11-15T07:22:13;8.10;99.90
25250;DHT22;13201;51.148;13.738;2022-11-15T07:24:39;8.20;99.90
25250;DHT22;13201;51.148;13.738;2022-11-15T07:27:04;8.30;99.90
25250;DHT22;13201;51.148;13.738;2022-11-15T07:29:30;8.40;99.90
25250;DHT22;13201;51.148;13.738;2022-11-15T07:31:55;8.40;99.90
25250;DHT22;13201;51.148;13.738;2022-11-15T07:34:21;8.40;99.90
25250;DHT22;13201;51.148;13.738;2022-11-15T07:36:47;8.40;99.90
25250;DHT22;13201;51.148;13.738;2022-11-15T07:39:13;8.40;99.90
25250;DHT22;13201;51.148;13.738;2022-11-15T07:41:39;8.50;99.90
25250;DHT22;13201;51.148;13.738;2022-11-15T07:44:05;8.50;99.90
25250;DHT22;13201;51.148;13.738;2022-11-15T07:46:31;8.70;99.90
25250;DHT22;13201;51.148;13.738;2022-11-15T07:48:57;8.70;99.90
25250;DHT22;13201;51.148;13.738;2022-11-15T07:51:22;8.70;99.90
25250;DHT22;13201;51.148;13.738;2022-11-15T07:53:48;8.70;99.90
25250;DHT22;13201;51.148;13.738;2022-11-15T07:56:14;8.80;99.90
25250;DHT22;13201;51.148;13.738;2022-11-15T07:58:39;8.80;99.90
25250;DHT22;13201;51.148;13.738;2022-11-15T08:01:06;8.80;99.90
25250;DHT22;13201;51.148;13.738;2022-11-15T08:03:33;8.80;99.90
25250;DHT22;13201;51.148;13.738;2022-11-15T08:05:59;8.90;99.90
25250;DHT22;13201;51.148;13.738;2022-11-15T08:08:24;8.90;99.90
25250;DHT22;13201;51.148;13.738;2022-11-15T08:10:50;8.90;99.90
25250;DHT22;13201;51.148;13.738;2022-11-15T08:13:16;9.00;99.90
25250;DHT22;13201;51.148;13.738;2022-11-15T08:15:42;9.10;99.90
25250;DHT22;13201;51.148;13.738;2022-11-15T08:18:12;9.20;99.90
25250;DHT22;13201;51.148;13.738;2022-11-15T08:20:38;9.20;99.90
25250;DHT22;13201;51.148;13.738;2022-11-15T08:23:04;9.20;99.90
25250;DHT22;13201;51.148;13.738;2022-11-15T08:25:32;9.20;99.90
25250;DHT22;13201;51.148;13.738;2022-11-15T08:28:01;9.30;99.90
25250;DHT22;13201;51.148;13.738;2022-11-15T08:30:27;9.40;99.90
25250;DHT22;13201;51.148;13.738;2022-11-15T08:32:54;9.40;99.90
25250;DHT22;13201;51.148;13.738;2022-11-15T08:35:21;9.50;99.90
25250;DHT22;13201;51.148;13.738;2022-11-15T08:37:47;9.60;99.90
25250;DHT22;13201;51.148;13.738;2022-11-15T08:40:13;9.60;99.90
25250;DHT22;13201;51.148;13.738;2022-11-15T08:42:40;9.70;99.90
25250;DHT22;13201;51.148;13.738;2022-11-15T08:45:06;9.80;99.90
25250;DHT22;13201;51.148;13.738;2022-11-15T08:47:32;9.80;99.90
25250;DHT22;13201;51.148;13.738;2022-11-15T08:49:58;9.90;99.90
25250;DHT22;13201;51.148;13.738;2022-11-15T08:52:24;9.90;99.90
25250;DHT22;13201;51.148;13.738;2022-11-15T08:54:50;9.90;99.90
25250;DHT22;13201;51.148;13.738;2022-11-15T08:57:15;10.00;99.90
25250;DHT22;13201;51.148;13.738;2022-11-15T08:59:41;10.10;99.90
25250;DHT22;13201;51.148;13.738;2022-11-15T09:02:14;10.20;99.90
25250;DHT22;13201;51.148;13.738;2022-11-15T09:04:43;10.20;99.90
25250;DHT22;13201;51.148;13.738;2022-11-15T09:07:10;10.30;99.90
25250;DHT22;13201;51.148;13.738;2022-11-15T09:09:36;10.40;99.90
25250;DHT22;13201;51.148;13.738;2022-11-15T09:12:03;10.40;99.90
25250;DHT22;13201;51.148;13.738;2022-11-15T09:14:29;10.50;99.90
25250;DHT22;13201;51.148;13.738;2022-11-15T09:16:54;10.60;99.90
25250;DHT22;13201;51.148;13.738;2022-11-15T09:19:20;10.70;99.90
25250;DHT22;13201;51.148;13.738;2022-11-15T09:21:46;10.80;99.90
25250;DHT22;13201;51.148;13.738;2022-11-15T09:24:12;10.80;99.90
25250;DHT22;13201;51.148;13.738;2022-11-15T09:26:39;10.90;99.90
25250;DHT22;13201;51.148;13.738;2022-11-15T09:29:05;11.00;99.90
25250;DHT22;13201;51.148;13.738;2022-11-15T09:31:31;11.10;99.90
25250;DHT22;13201;51.148;13.738;2022-11-15T09:33:56;11.20;99.90
25250;DHT22;13201;51.148;13.738;2022-11-15T09:36:22;11.20;99.90
25250;DHT22;13201;51.148;13.738;2022-11-15T09:38:48;11.30;99.90
25250;DHT22;13201;51.148;13.738;2022-11-15T09:47:04;11.50;99.90
25250;DHT22;13201;51.148;13.738;2022-11-15T09:49:31;11.60;99.90
25250;DHT22;13201;51.148;13.738;2022-11-15T09:51:58;11.80;99.90
25250;DHT22;13201;51.148;13.738;2022-11-15T09:56:53;11.90;99.90
25250;DHT22;13201;51.148;13.738;2022-11-15T09:59:38;12.00;99.90
25250;DHT22;13201;51.148;13.738;2022-11-15T10:04:41;12.10;99.90
25250;DHT22;13201;51.148;13.738;2022-11-15T10:07:19;12.20;99.90
25250;DHT22;13201;51.148;13.738;2022-11-15T10:12:18;12.40;99.90
25250;DHT22;13201;51.148;13.738;2022-11-15T10:14:45;12.50;99.90
25250;DHT22;13201;51.148;13.738;2022-11-15T10:20:05;12.70;99.90
25250;DHT22;13201;51.148;13.738;2022-11-15T10:22:49;12.70;99.90
25250;DHT22;13201;51.148;13.738;2022-11-15T10:30:21;12.80;99.90
25250;DHT22;13201;51.148;13.738;2022-11-15T10:32:47;12.90;99.90
25250;DHT22;13201;51.148;13.738;2022-11-15T10:35:27;13.00;99.90
25250;DHT22;13201;51.148;13.738;2022-11-15T10:38:05;13.10;99.90
25250;DHT22;13201;51.148;13.738;2022-11-15T10:40:32;13.30;99.90
25250;DHT22;13201;51.148;13.738;2022-11-15T10:43:15;13.20;99.90
25250;DHT22;13201;51.148;13.738;2022-11-15T10:45:41;13.30;99.90
25250;DHT22;13201;51.148;13.738;2022-11-15T10:50:43;13.40;99.90
25250;DHT22;13201;51.148;13.738;2022-11-15T10:53:38;13.50;99.90
25250;DHT22;13201;51.148;13.738;2022-11-15T10:56:11;13.60;99.90
25250;DHT22;13201;51.148;13.738;2022-11-15T10:58:43;13.60;99.90
25250;DHT22;13201;51.148;13.738;2022-11-15T11:01:12;13.50;99.90
25250;DHT22;13201;51.148;13.738;2022-11-15T11:03:39;13.50;99.90
25250;DHT22;13201;51.148;13.738;2022-11-15T11:06:16;13.50;99.90
25250;DHT22;13201;51.148;13.738;2022-11-15T11:09:02;13.70;99.90
25250;DHT22;13201;51.148;13.738;2022-11-15T11:11:49;13.80;99.90
25250;DHT22;13201;51.148;13.738;2022-11-15T11:14:28;13.70;99.90
25250;DHT22;13201;51.148;13.738;2022-11-15T11:17:13;13.80;99.90
25250;DHT22;13201;51.148;13.738;2022-11-15T11:33:20;14.50;99.90
25250;DHT22;13201;51.148;13.738;2022-11-15T11:36:02;14.60;99.90
25250;DHT22;13201;51.148;13.738;2022-11-15T11:49:43;14.80;99.90
25250;DHT22;13201;51.148;13.738;2022-11-15T11:52:18;14.90;99.90
25250;DHT22;13201;51.148;13.738;2022-11-15T12:00:24;15.00;99.90
25250;DHT22;13201;51.148;13.738;2022-11-15T12:03:16;15.10;99.90
25250;DHT22;13201;51.148;13.738;2022-11-15T12:05:50;15.20;99.90
25250;DHT22;13201;51.148;13.738;2022-11-15T12:10:57;15.40;99.90
25250;DHT22;13201;51.148;13.738;2022-11-15T12:13:27;15.50;99.90
25250;DHT22;13201;51.148;13.738;2022-11-15T12:16:30;15.50;99.90
25250;DHT22;13201;51.148;13.738;2022-11-15T12:19:02;15.60;99.90
25250;DHT22;13201;51.148;13.738;2022-11-15T12:24:27;15.60;99.90
25250;DHT22;13201;51.148;13.738;2022-11-15T12:27:05;15.60;99.90
25250;DHT22;13201;51.148;13.738;2022-11-15T12:29:42;15.70;99.90
25250;DHT22;13201;51.148;13.738;2022-11-15T12:32:28;15.80;99.90
25250;DHT22;13201;51.148;13.738;2022-11-15T12:34:55;15.70;99.90
25250;DHT22;13201;51.148;13.738;2022-11-15T12:37:50;15.50;99.90
25250;DHT22;13201;51.148;13.738;2022-11-15T12:40:25;15.40;99.90
25250;DHT22;13201;51.148;13.738;2022-11-15T12:43:04;15.00;99.90
25250;DHT22;13201;51.148;13.738;2022-11-15T12:58:58;14.80;99.90
25250;DHT22;13201;51.148;13.738;2022-11-15T13:06:46;14.40;99.90
25250;DHT22;13201;51.148;13.738;2022-11-15T13:12:11;14.20;99.90
25250;DHT22;13201;51.148;13.738;2022-11-15T13:17:17;14.30;99.90
25250;DHT22;13201;51.148;13.738;2022-11-15T13:22:40;14.20;99.90
25250;DHT22;13201;51.148;13.738;2022-11-15T13:33:38;14.30;99.90
25250;DHT22;13201;51.148;13.738;2022-11-15T13:36:06;14.40;99.90
25250;DHT22;13201;51.148;13.738;2022-11-15T13:38:38;14.30;99.90
25250;DHT22;13201;51.148;13.738;2022-11-15T13:41:24;14.30;99.90
25250;DHT22;13201;51.148;13.738;2022-11-15T13:43:51;14.20;99.90
25250;DHT22;13201;51.148;13.738;2022-11-15T13:46:44;14.30;99.90
25250;DHT22;13201;51.148;13.738;2022-11-15T13:49:10;14.30;99.90
25250;DHT22;13201;51.148;13.738;2022-11-15T13:51:37;14.30;99.90
25250;DHT22;13201;51.148;13.738;2022-11-15T13:54:07;14.00;99.90
25250;DHT22;13201;51.148;13.738;2022-11-15T13:56:36;14.30;99.90
25250;DHT22;13201;51.148;13.738;2022-11-15T13:59:32;14.30;99.90
25250;DHT22;13201;51.148;13.738;2022-11-15T14:02:11;13.90;99.90
25250;DHT22;13201;51.148;13.738;2022-11-15T14:04:42;13.70;99.90
25250;DHT22;13201;51.148;13.738;2022-11-15T14:07:19;13.60;99.90
25250;DHT22;13201;51.148;13.738;2022-11-15T14:09:46;13.50;99.90
25250;DHT22;13201;51.148;13.738;2022-11-15T14:12:25;13.50;99.90
25250;DHT22;13201;51.148;13.738;2022-11-15T14:14:51;13.40;99.90
25250;DHT22;13201;51.148;13.738;2022-11-15T14:19:56;13.40;99.90
25250;DHT22;13201;51.148;13.738;2022-11-15T14:27:39;13.20;99.90
25250;DHT22;13201;51.148;13.738;2022-11-15T14:30:05;13.20;99.90
25250;DHT22;13201;51.148;13.738;2022-11-15T14:32:50;13.10;99.90
25250;DHT22;13201;51.148;13.738;2022-11-15T14:35:18;13.10;99.90
25250;DHT22;13201;51.148;13.738;2022-11-15T14:37:45;13.00;99.90
25250;DHT22;13201;51.148;13.738;2022-11-15T14:40:15;13.00;99.90
25250;DHT22;13201;51.148;13.738;2022-11-15T14:42:43;13.00;99.90
25250;DHT22;13201;51.148;13.738;2022-11-15T14:47:40;13.10;99.90
25250;DHT22;13201;51.148;13.738;2022-11-15T14:50:10;13.00;99.90
25250;DHT22;13201;51.148;13.738;2022-11-15T14:52:36;13.00;99.90
25250;DHT22;13201;51.148;13.738;2022-11-15T14:55:04;12.90;99.90
25250;DHT22;13201;51.148;13.738;2022-11-15T14:57:35;12.90;99.90
25250;DHT22;13201;51.148;13.738;2022-11-15T15:00:00;12.80;99.90
25250;DHT22;13201;51.148;13.738;2022-11-15T15:02:27;12.50;99.90
25250;DHT22;13201;51.148;13.738;2022-11-15T15:04:53;12.30;99.90
25250;DHT22;13201;51.148;13.738;2022-11-15T15:07:19;12.20;99.90
25250;DHT22;13201;51.148;13.738;2022-11-15T15:09:45;12.20;99.90
25250;DHT22;13201;51.148;13.738;2022-11-15T15:12:22;12.10;99.90
25250;DHT22;13201;51.148;13.738;2022-11-15T15:14:49;12.00;99.90
25250;DHT22;13201;51.148;13.738;2022-11-15T15:17:16;11.60;99.90
25250;DHT22;13201;51.148;13.738;2022-11-15T15:19:41;11.50;99.90
25250;DHT22;13201;51.148;13.738;2022-11-15T15:22:19;11.60;99.90
25250;DHT22;13201;51.148;13.738;2022-11-15T15:24:47;11.50;99.90
25250;DHT22;13201;51.148;13.738;2022-11-15T15:27:13;11.60;99.90
25250;DHT22;13201;51.148;13.738;2022-11-15T15:29:38;11.60;99.90
25250;DHT22;13201;51.148;13.738;2022-11-15T15:32:04;11.50;99.90
25250;DHT22;13201;51.148;13.738;2022-11-15T15:34:31;11.50;99.90
25250;DHT22;13201;51.148;13.738;2022-11-15T15:39:41;11.00;99.90
25250;DHT22;13201;51.148;13.738;2022-11-15T15:42:06;10.80;99.90
25250;DHT22;13201;51.148;13.738;2022-11-15T15:44:32;11.00;99.90
25250;DHT22;13201;51.148;13.738;2022-11-15T15:46:57;11.00;99.90
25250;DHT22;13201;51.148;13.738;2022-11-15T15:49:23;10.70;99.90
25250;DHT22;13201;51.148;13.738;2022-11-15T15:51:49;10.40;99.90
25250;DHT22;13201;51.148;13.738;2022-11-15T15:54:15;10.40;99.90
25250;DHT22;13201;51.148;13.738;2022-11-15T15:56:40;10.40;99.90
25250;DHT22;13201;51.148;13.738;2022-11-15T15:59:06;10.30;99.90
25250;DHT22;13201;51.148;13.738;2022-11-15T16:01:32;10.40;99.90
25250;DHT22;13201;51.148;13.738;2022-11-15T16:03:57;10.00;99.90
25250;DHT22;13201;51.148;13.738;2022-11-15T16:06:41;10.10;99.90
25250;DHT22;13201;51.148;13.738;2022-11-15T16:09:14;10.00;99.90
25250;DHT22;13201;51.148;13.738;2022-11-15T16:11:41;9.90;99.90
25250;DHT22;13201;51.148;13.738;2022-11-15T16:14:08;9.90;99.90
25250;DHT22;13201;51.148;13.738;2022-11-15T16:16:34;9.80;99.90
25250;DHT22;13201;51.148;13.738;2022-11-15T16:19:00;9.80;99.90
25250;DHT22;13201;51.148;13.738;2022-11-15T16:21:27;9.80;99.90
25250;DHT22;13201;51.148;13.738;2022-11-15T16:23:53;9.60;99.90
25250;DHT22;13201;51.148;13.738;2022-11-15T16:26:25;9.50;99.90
25250;DHT22;13201;51.148;13.738;2022-11-15T16:28:51;9.40;99.90
25250;DHT22;13201;51.148;13.738;2022-11-15T16:31:16;9.40;99.90
25250;DHT22;13201;51.148;13.738;2022-11-15T16:33:44;9.20;99.90
25250;DHT22;13201;51.148;13.738;2022-11-15T16:38:45;9.10;99.90
25250;DHT22;13201;51.148;13.738;2022-11-15T16:41:11;9.00;99.90
25250;DHT22;13201;51.148;13.738;2022-11-15T16:43:36;9.00;99.90
25250;DHT22;13201;51.148;13.738;2022-11-15T16:46:08;9.10;99.90
25250;DHT22;13201;51.148;13.738;2022-11-15T16:48:37;9.00;99.90
25250;DHT22;13201;51.148;13.738;2022-11-15T16:51:04;8.80;99.90
25250;DHT22;13201;51.148;13.738;2022-11-15T16:53:30;8.60;99.90
25250;DHT22;13201;51.148;13.738;2022-11-15T16:55:56;8.50;99.90
25250;DHT22;13201;51.148;13.738;2022-11-15T16:58:22;8.40;99.90
25250;DHT22;13201;51.148;13.738;2022-11-15T17:00:55;8.40;99.90
25250;DHT22;13201;51.148;13.738;2022-11-15T17:03:22;8.30;99.90
25250;DHT22;13201;51.148;13.738;2022-11-15T17:05:49;8.30;99.90
25250;DHT22;13201;51.148;13.738;2022-11-15T17:08:15;8.50;99.90
25250;DHT22;13201;51.148;13.738;2022-11-15T17:10:41;8.50;99.90
25250;DHT22;13201;51.148;13.738;2022-11-15T17:13:12;8.60;99.90
25250;DHT22;13201;51.148;13.738;2022-11-15T17:15:38;8.50;99.90
25250;DHT22;13201;51.148;13.738;2022-11-15T17:18:04;8.40;99.90
25250;DHT22;13201;51.148;13.738;2022-11-15T17:20:31;8.40;99.90
25250;DHT22;13201;51.148;13.738;2022-11-15T17:22:57;8.40;99.90
25250;DHT22;13201;51.148;13.738;2022-11-15T17:25:23;8.40;99.90
25250;DHT22;13201;51.148;13.738;2022-11-15T17:27:48;8.30;99.90
25250;DHT22;13201;51.148;13.738;2022-11-15T17:30:15;8.30;99.90
25250;DHT22;13201;51.148;13.738;2022-11-15T17:32:42;8.30;99.90
25250;DHT22;13201;51.148;13.738;2022-11-15T17:35:08;8.40;99.90
25250;DHT22;13201;51.148;13.738;2022-11-15T17:37:35;8.30;99.90
25250;DHT22;13201;51.148;13.738;2022-11-15T17:40:00;8.30;99.90
25250;DHT22;13201;51.148;13.738;2022-11-15T17:42:26;8.20;99.90
25250;DHT22;13201;51.148;13.738;2022-11-15T17:44:52;8.30;99.90
25250;DHT22;13201;51.148;13.738;2022-11-15T17:47:17;8.30;99.90
25250;DHT22;13201;51.148;13.738;2022-11-15T17:49:43;8.30;99.90
25250;DHT22;13201;51.148;13.738;2022-11-15T17:52:09;8.20;99.90
25250;DHT22;13201;51.148;13.738;2022-11-15T17:54:34;8.30;99.90
25250;DHT22;13201;51.148;13.738;2022-11-15T17:57:00;8.30;99.90
25250;DHT22;13201;51.148;13.738;2022-11-15T17:59:26;8.30;99.90
25250;DHT22;13201;51.148;13.738;2022-11-15T18:01:51;8.40;99.90
25250;DHT22;13201;51.148;13.738;2022-11-15T18:04:18;8.30;99.90
25250;DHT22;13201;51.148;13.738;2022-11-15T18:06:44;8.40;99.90
25250;DHT22;13201;51.148;13.738;2022-11-15T18:09:10;8.30;99.90
25250;DHT22;13201;51.148;13.738;2022-11-15T18:11:38;8.30;99.90
25250;DHT22;13201;51.148;13.738;2022-11-15T18:14:07;8.20;99.90
25250;DHT22;13201;51.148;13.738;2022-11-15T18:16:35;8.40;99.90
25250;DHT22;13201;51.148;13.738;2022-11-15T18:19:01;8.30;99.90
25250;DHT22;13201;51.148;13.738;2022-11-15T18:21:29;8.20;99.90
25250;DHT22;13201;51.148;13.738;2022-11-15T18:23:57;8.20;99.90
25250;DHT22;13201;51.148;13.738;2022-11-15T18:26:24;8.10;99.90